sensor_id;sensor_type;location;lat;lon;timestamp;pressure;altitude;pressure_sealevel;temperature;humidity
67545;BME280;54380;47.770;11.150;2024-02-23T00:01:12;93040.41;;;8.94;61.91
67545;BME280;54380;47.770;11.150;2024-02-23T00:03:40;93036.28;;;8.88;62.19
67545;BME280;54380;47.770;11.150;2024-02-23T00:06:07;93028.72;;;8.82;61.87
67545;BME280;54380;47.770;11.150;2024-02-23T00:08:35;93036.22;;;8.74;61.93
67545;BME280;54380;47.770;11.150;2024-02-23T00:11:02;93035.19;;;8.70;61.73
67545;BME280;54380;47.770;11.150;2024-02-23T00:13:29;93042.31;;;8.70;62.08
67545;BME280;54380;47.770;11.150;2024-02-23T00:15:56;93046.78;;;8.69;62.20
67545;BME280;54380;47.770;11.150;2024-02-23T00:18:23;93035.25;;;8.65;62.22
67545;BME280;54380;47.770;11.150;2024-02-23T00:20:51;93040.81;;;8.64;61.34
67545;BME280;54380;47.770;11.150;2024-02-23T00:23:18;93029.56;;;8.58;61.57
67545;BME280;54380;47.770;11.150;2024-02-23T00:25:46;93036.41;;;8.59;61.24
67545;BME280;54380;47.770;11.150;2024-02-23T00:28:12;93040.44;;;8.51;61.38
67545;BME280;54380;47.770;11.150;2024-02-23T00:30:39;93038.38;;;8.48;61.39
67545;BME280;54380;47.770;11.150;2024-02-23T00:33:06;93052.81;;;8.51;61.53
67545;BME280;54380;47.770;11.150;2024-02-23T00:35:33;93042.84;;;8.48;60.59
67545;BME280;54380;47.770;11.150;2024-02-23T00:38:01;93056.06;;;8.43;61.41
67545;BME280;54380;47.770;11.150;2024-02-23T00:40:27;93064.50;;;8.40;61.30
67545;BME280;54380;47.770;11.150;2024-02-23T00:42:54;93063.16;;;8.37;61.43
67545;BME280;54380;47.770;11.150;2024-02-23T00:45:21;93071.91;;;8.32;61.26
67545;BME280;54380;47.770;11.150;2024-02-23T00:47:48;93080.38;;;8.29;61.73
67545;BME280;54380;47.770;11.150;2024-02-23T00:50:14;93074.31;;;8.29;62.31
67545;BME280;54380;47.770;11.150;2024-02-23T00:52:42;93081.91;;;8.30;61.88
67545;BME280;54380;47.770;11.150;2024-02-23T00:55:10;93093.44;;;8.34;61.69
67545;BME280;54380;47.770;11.150;2024-02-23T00:57:38;93092.66;;;8.34;61.27
67545;BME280;54380;47.770;11.150;2024-02-23T01:00:06;93097.34;;;8.37;61.99
67545;BME280;54380;47.770;11.150;2024-02-23T01:02:33;93078.72;;;8.33;61.75
67545;BME280;54380;47.770;11.150;2024-02-23T01:05:00;93092.09;;;8.37;62.41
67545;BME280;54380;47.770;11.150;2024-02-23T01:07:27;93093.34;;;8.45;61.90
67545;BME280;54380;47.770;11.150;2024-02-23T01:09:54;93090.97;;;8.48;61.30
67545;BME280;54380;47.770;11.150;2024-02-23T01:12:22;93100.13;;;8.51;61.59
67545;BME280;54380;47.770;11.150;2024-02-23T01:14:49;93097.44;;;8.56;61.72
67545;BME280;54380;47.770;11.150;2024-02-23T01:17:16;93102.16;;;8.59;61.94
67545;BME280;54380;47.770;11.150;2024-02-23T01:19:43;93088.44;;;8.62;61.21
67545;BME280;54380;47.770;11.150;2024-02-23T01:22:10;93078.69;;;8.63;60.98
67545;BME280;54380;47.770;11.150;2024-02-23T01:24:37;93085.53;;;8.64;61.29
67545;BME280;54380;47.770;11.150;2024-02-23T01:27:04;93099.47;;;8.64;61.61
67545;BME280;54380;47.770;11.150;2024-02-23T01:29:32;93105.50;;;8.65;60.96
67545;BME280;54380;47.770;11.150;2024-02-23T01:31:59;93099.22;;;8.61;60.96
67545;BME280;54380;47.770;11.150;2024-02-23T01:34:47;93103.19;;;8.58;60.92
67545;BME280;54380;47.770;11.150;2024-02-23T01:37:13;93105.88;;;8.53;60.88
67545;BME280;54380;47.770;11.150;2024-02-23T01:39:40;93108.03;;;8.51;61.00
67545;BME280;54380;47.770;11.150;2024-02-23T01:42:08;93103.25;;;8.53;59.84
67545;BME280;54380;47.770;11.150;2024-02-23T01:44:36;93100.72;;;8.48;60.32
67545;BME280;54380;47.770;11.150;2024-02-23T01:47:03;93116.47;;;8.48;60.34
67545;BME280;54380;47.770;11.150;2024-02-23T01:49:29;93096.28;;;8.43;61.02
67545;BME280;54380;47.770;11.150;2024-02-23T01:51:58;93097.28;;;8.47;60.85
67545;BME280;54380;47.770;11.150;2024-02-23T01:54:25;93085.72;;;8.48;60.98
67545;BME280;54380;47.770;11.150;2024-02-23T01:56:52;93099.63;;;8.49;60.29
67545;BME280;54380;47.770;11.150;2024-02-23T01:59:20;93093.81;;;8.52;59.80
67545;BME280;54380;47.770;11.150;2024-02-23T02:01:48;93079.66;;;8.48;60.11
67545;BME280;54380;47.770;11.150;2024-02-23T02:04:15;93095.44;;;8.48;60.55
67545;BME280;54380;47.770;11.150;2024-02-23T02:06:42;93094.94;;;8.46;59.79
67545;BME280;54380;47.770;11.150;2024-02-23T02:09:09;93104.16;;;8.43;59.25
67545;BME280;54380;47.770;11.150;2024-02-23T02:11:44;93108.13;;;8.41;59.47
67545;BME280;54380;47.770;11.150;2024-02-23T02:14:11;93102.59;;;8.37;58.73
67545;BME280;54380;47.770;11.150;2024-02-23T02:16:38;93104.47;;;8.36;58.38
67545;BME280;54380;47.770;11.150;2024-02-23T02:19:07;93086.63;;;8.33;58.15
67545;BME280;54380;47.770;11.150;2024-02-23T02:21:34;93104.50;;;8.31;58.43
67545;BME280;54380;47.770;11.150;2024-02-23T02:24:01;93091.88;;;8.33;57.45
67545;BME280;54380;47.770;11.150;2024-02-23T02:26:29;93103.16;;;8.34;57.38
67545;BME280;54380;47.770;11.150;2024-02-23T02:28:56;93111.84;;;8.34;57.22
67545;BME280;54380;47.770;11.150;2024-02-23T02:31:23;93116.31;;;8.34;57.35
67545;BME280;54380;47.770;11.150;2024-02-23T02:33:50;93104.25;;;8.33;56.53
67545;BME280;54380;47.770;11.150;2024-02-23T02:36:18;93102.94;;;8.30;56.56
67545;BME280;54380;47.770;11.150;2024-02-23T02:38:44;93105.78;;;8.34;57.13
67545;BME280;54380;47.770;11.150;2024-02-23T02:41:11;93117.88;;;8.40;56.56
67545;BME280;54380;47.770;11.150;2024-02-23T02:43:38;93106.81;;;8.38;56.81
67545;BME280;54380;47.770;11.150;2024-02-23T02:46:05;93105.78;;;8.39;56.58
67545;BME280;54380;47.770;11.150;2024-02-23T02:48:31;93114.16;;;8.41;56.71
67545;BME280;54380;47.770;11.150;2024-02-23T02:50:58;93116.03;;;8.41;56.61
67545;BME280;54380;47.770;11.150;2024-02-23T02:53:26;93115.47;;;8.44;55.96
67545;BME280;54380;47.770;11.150;2024-02-23T02:55:53;93124.41;;;8.43;56.51
67545;BME280;54380;47.770;11.150;2024-02-23T02:58:20;93127.81;;;8.43;56.84
67545;BME280;54380;47.770;11.150;2024-02-23T03:00:46;93132.78;;;8.45;57.03
67545;BME280;54380;47.770;11.150;2024-02-23T03:03:13;93132.53;;;8.46;56.15
67545;BME280;54380;47.770;11.150;2024-02-23T03:05:40;93141.50;;;8.45;56.56
67545;BME280;54380;47.770;11.150;2024-02-23T03:08:07;93140.41;;;8.46;56.42
67545;BME280;54380;47.770;11.150;2024-02-23T03:10:35;93139.84;;;8.49;56.31
67545;BME280;54380;47.770;11.150;2024-02-23T03:13:02;93141.13;;;8.52;56.40
67545;BME280;54380;47.770;11.150;2024-02-23T03:15:28;93134.59;;;8.49;55.78
67545;BME280;54380;47.770;11.150;2024-02-23T03:17:55;93144.34;;;8.49;55.71
67545;BME280;54380;47.770;11.150;2024-02-23T03:20:22;93136.22;;;8.45;55.19
67545;BME280;54380;47.770;11.150;2024-02-23T03:22:49;93138.38;;;8.38;55.27
67545;BME280;54380;47.770;11.150;2024-02-23T03:25:15;93133.16;;;8.33;55.16
67545;BME280;54380;47.770;11.150;2024-02-23T03:27:43;93133.47;;;8.26;55.87
67545;BME280;54380;47.770;11.150;2024-02-23T03:30:10;93129.56;;;8.24;56.10
67545;BME280;54380;47.770;11.150;2024-02-23T03:32:37;93132.13;;;8.29;56.72
67545;BME280;54380;47.770;11.150;2024-02-23T03:35:06;93128.16;;;8.31;56.25
67545;BME280;54380;47.770;11.150;2024-02-23T03:37:35;93126.31;;;8.32;56.01
67545;BME280;54380;47.770;11.150;2024-02-23T03:40:02;93137.63;;;8.32;56.29
67545;BME280;54380;47.770;11.150;2024-02-23T03:42:29;93136.31;;;8.35;56.29
67545;BME280;54380;47.770;11.150;2024-02-23T03:44:58;93141.78;;;8.39;56.38
67545;BME280;54380;47.770;11.150;2024-02-23T03:47:24;93137.06;;;8.35;55.99
67545;BME280;54380;47.770;11.150;2024-02-23T03:49:52;93132.66;;;8.31;55.45
67545;BME280;54380;47.770;11.150;2024-02-23T03:52:18;93145.56;;;8.27;56.07
67545;BME280;54380;47.770;11.150;2024-02-23T03:54:45;93141.09;;;8.28;56.45
67545;BME280;54380;47.770;11.150;2024-02-23T03:57:12;93146.88;;;8.30;56.84
67545;BME280;54380;47.770;11.150;2024-02-23T03:59:39;93142.91;;;8.32;56.60
67545;BME280;54380;47.770;11.150;2024-02-23T04:02:08;93145.28;;;8.29;56.38
67545;BME280;54380;47.770;11.150;2024-02-23T04:04:35;93147.13;;;8.28;55.98
67545;BME280;54380;47.770;11.150;2024-02-23T04:07:02;93142.66;;;8.29;56.84
67545;BME280;54380;47.770;11.150;2024-02-23T04:09:29;93147.34;;;8.32;57.19
67545;BME280;54380;47.770;11.150;2024-02-23T04:11:56;93152.91;;;8.30;57.32
67545;BME280;54380;47.770;11.150;2024-02-23T04:14:23;93153.16;;;8.29;56.88
67545;BME280;54380;47.770;11.150;2024-02-23T04:16:49;93154.78;;;8.25;56.79
67545;BME280;54380;47.770;11.150;2024-02-23T04:19:18;93160.06;;;8.25;57.46
67545;BME280;54380;47.770;11.150;2024-02-23T04:21:45;93164.53;;;8.24;57.43
67545;BME280;54380;47.770;11.150;2024-02-23T04:24:12;93164.78;;;8.23;57.77
67545;BME280;54380;47.770;11.150;2024-02-23T04:26:38;93157.97;;;8.22;58.10
67545;BME280;54380;47.770;11.150;2024-02-23T04:29:05;93154.88;;;8.14;58.10
67545;BME280;54380;47.770;11.150;2024-02-23T04:31:33;93170.19;;;8.07;58.04
67545;BME280;54380;47.770;11.150;2024-02-23T04:33:59;93163.94;;;8.03;58.34
67545;BME280;54380;47.770;11.150;2024-02-23T04:36:27;93168.94;;;8.00;58.45
67545;BME280;54380;47.770;11.150;2024-02-23T04:38:54;93174.22;;;7.95;58.73
67545;BME280;54380;47.770;11.150;2024-02-23T04:41:21;93180.03;;;7.91;58.57
67545;BME280;54380;47.770;11.150;2024-02-23T04:43:48;93179.28;;;7.86;58.63
67545;BME280;54380;47.770;11.150;2024-02-23T04:46:15;93170.69;;;7.75;59.03
67545;BME280;54380;47.770;11.150;2024-02-23T04:48:43;93160.50;;;7.68;58.92
67545;BME280;54380;47.770;11.150;2024-02-23T04:51:09;93163.97;;;7.64;59.14
67545;BME280;54380;47.770;11.150;2024-02-23T04:53:38;93168.69;;;7.62;59.70
67545;BME280;54380;47.770;11.150;2024-02-23T04:56:05;93170.78;;;7.65;59.77
67545;BME280;54380;47.770;11.150;2024-02-23T04:58:32;93164.19;;;7.67;59.43
67545;BME280;54380;47.770;11.150;2024-02-23T05:00:58;93169.44;;;7.67;59.63
67545;BME280;54380;47.770;11.150;2024-02-23T05:03:25;93179.16;;;7.67;59.52
67545;BME280;54380;47.770;11.150;2024-02-23T05:05:53;93177.34;;;7.62;60.17
67545;BME280;54380;47.770;11.150;2024-02-23T05:08:20;93183.16;;;7.59;59.80
67545;BME280;54380;47.770;11.150;2024-02-23T05:10:49;93172.44;;;7.56;59.74
67545;BME280;54380;47.770;11.150;2024-02-23T05:13:16;93167.44;;;7.54;59.89
67545;BME280;54380;47.770;11.150;2024-02-23T05:15:43;93164.25;;;7.57;60.09
67545;BME280;54380;47.770;11.150;2024-02-23T05:18:09;93170.81;;;7.60;59.59
67545;BME280;54380;47.770;11.150;2024-02-23T05:20:39;93164.53;;;7.56;59.00
67545;BME280;54380;47.770;11.150;2024-02-23T05:23:06;93169.53;;;7.52;59.29
67545;BME280;54380;47.770;11.150;2024-02-23T05:25:34;93179.25;;;7.52;59.15
67545;BME280;54380;47.770;11.150;2024-02-23T05:28:02;93170.16;;;7.39;58.55
67545;BME280;54380;47.770;11.150;2024-02-23T05:30:29;93154.75;;;7.27;59.10
67545;BME280;54380;47.770;11.150;2024-02-23T05:32:58;93156.63;;;7.16;59.01
67545;BME280;54380;47.770;11.150;2024-02-23T05:35:25;93169.78;;;7.11;59.32
67545;BME280;54380;47.770;11.150;2024-02-23T05:37:53;93168.47;;;7.09;59.14
67545;BME280;54380;47.770;11.150;2024-02-23T05:40:20;93183.41;;;7.08;59.36
67545;BME280;54380;47.770;11.150;2024-02-23T05:42:47;93187.88;;;7.08;58.91
67545;BME280;54380;47.770;11.150;2024-02-23T05:45:15;93180.56;;;7.04;59.09
67545;BME280;54380;47.770;11.150;2024-02-23T05:47:43;93182.66;;;7.02;58.50
67545;BME280;54380;47.770;11.150;2024-02-23T05:50:14;93175.88;;;6.96;58.46
67545;BME280;54380;47.770;11.150;2024-02-23T05:52:41;93181.13;;;6.96;58.64
67545;BME280;54380;47.770;11.150;2024-02-23T05:55:08;93173.25;;;6.96;58.91
67545;BME280;54380;47.770;11.150;2024-02-23T05:57:35;93178.25;;;6.98;58.70
67545;BME280;54380;47.770;11.150;2024-02-23T06:00:02;93175.88;;;6.96;58.83
67545;BME280;54380;47.770;11.150;2024-02-23T06:02:38;93184.78;;;7.00;58.90
67545;BME280;54380;47.770;11.150;2024-02-23T06:05:06;93185.81;;;7.04;58.90
67545;BME280;54380;47.770;11.150;2024-02-23T06:07:34;93182.63;;;7.08;58.70
67545;BME280;54380;47.770;11.150;2024-02-23T06:10:02;93189.47;;;7.09;58.84
67545;BME280;54380;47.770;11.150;2024-02-23T06:12:29;93190.78;;;7.06;58.78
67545;BME280;54380;47.770;11.150;2024-02-23T06:14:56;93189.19;;;7.10;59.31
67545;BME280;54380;47.770;11.150;2024-02-23T06:17:24;93186.53;;;7.15;59.13
67545;BME280;54380;47.770;11.150;2024-02-23T06:19:52;93203.59;;;7.13;58.26
67545;BME280;54380;47.770;11.150;2024-02-23T06:22:20;93198.38;;;7.08;58.53
67545;BME280;54380;47.770;11.150;2024-02-23T06:24:50;93199.16;;;7.08;58.39
67545;BME280;54380;47.770;11.150;2024-02-23T06:27:16;93198.91;;;7.04;58.70
67545;BME280;54380;47.770;11.150;2024-02-23T06:29:43;93199.97;;;7.03;58.87
67545;BME280;54380;47.770;11.150;2024-02-23T06:32:10;93199.16;;;7.08;59.09
67545;BME280;54380;47.770;11.150;2024-02-23T06:34:37;93196.50;;;7.13;58.44
67545;BME280;54380;47.770;11.150;2024-02-23T06:37:05;93199.44;;;7.12;58.26
67545;BME280;54380;47.770;11.150;2024-02-23T06:39:32;93202.06;;;7.07;58.29
67545;BME280;54380;47.770;11.150;2024-02-23T06:41:58;93196.06;;;7.01;58.30
67545;BME280;54380;47.770;11.150;2024-02-23T06:44:27;93193.16;;;6.97;58.82
67545;BME280;54380;47.770;11.150;2024-02-23T06:46:54;93203.41;;;6.99;58.88
67545;BME280;54380;47.770;11.150;2024-02-23T06:49:20;93189.75;;;7.02;58.64
67545;BME280;54380;47.770;11.150;2024-02-23T06:51:47;93191.81;;;7.05;58.40
67545;BME280;54380;47.770;11.150;2024-02-23T06:54:15;93206.28;;;7.02;58.03
67545;BME280;54380;47.770;11.150;2024-02-23T06:56:43;93207.34;;;7.01;58.15
67545;BME280;54380;47.770;11.150;2024-02-23T06:59:09;93208.66;;;6.99;57.75
67545;BME280;54380;47.770;11.150;2024-02-23T07:01:36;93215.47;;;6.95;57.79
67545;BME280;54380;47.770;11.150;2024-02-23T07:04:13;93220.47;;;6.91;57.94
67545;BME280;54380;47.770;11.150;2024-02-23T07:06:40;93226.50;;;6.92;58.12
67545;BME280;54380;47.770;11.150;2024-02-23T07:09:07;93221.03;;;6.88;58.10
67545;BME280;54380;47.770;11.150;2024-02-23T07:11:36;93229.16;;;6.87;58.09
67545;BME280;54380;47.770;11.150;2024-02-23T07:14:03;93235.97;;;6.88;58.77
67545;BME280;54380;47.770;11.150;2024-02-23T07:16:29;93238.06;;;6.86;58.46
67545;BME280;54380;47.770;11.150;2024-02-23T07:18:56;93242.28;;;6.81;58.85
67545;BME280;54380;47.770;11.150;2024-02-23T07:21:23;93251.19;;;6.80;59.05
67545;BME280;54380;47.770;11.150;2024-02-23T07:23:50;93249.91;;;6.78;58.97
67545;BME280;54380;47.770;11.150;2024-02-23T07:26:17;93241.25;;;6.77;59.34
67545;BME280;54380;47.770;11.150;2024-02-23T07:28:47;93244.88;;;6.81;59.51
67545;BME280;54380;47.770;11.150;2024-02-23T07:31:14;93240.72;;;6.80;59.44
67545;BME280;54380;47.770;11.150;2024-02-23T07:33:42;93236.53;;;6.79;59.29
67545;BME280;54380;47.770;11.150;2024-02-23T07:36:13;93229.16;;;6.76;59.26
67545;BME280;54380;47.770;11.150;2024-02-23T07:38:40;93228.69;;;6.69;59.27
67545;BME280;54380;47.770;11.150;2024-02-23T07:41:07;93228.41;;;6.66;59.40
67545;BME280;54380;47.770;11.150;2024-02-23T07:43:34;93224.75;;;6.67;59.83
67545;BME280;54380;47.770;11.150;2024-02-23T07:46:02;93220.53;;;6.66;59.51
67545;BME280;54380;47.770;11.150;2024-02-23T07:48:31;93217.16;;;6.65;59.93
67545;BME280;54380;47.770;11.150;2024-02-23T07:50:58;93201.94;;;6.67;59.66
67545;BME280;54380;47.770;11.150;2024-02-23T07:53:24;93205.63;;;6.66;60.04
67545;BME280;54380;47.770;11.150;2024-02-23T07:55:51;93199.06;;;6.64;59.94
67545;BME280;54380;47.770;11.150;2024-02-23T07:58:18;93186.47;;;6.60;60.13
67545;BME280;54380;47.770;11.150;2024-02-23T08:00:45;93184.13;;;6.59;60.69
67545;BME280;54380;47.770;11.150;2024-02-23T08:03:14;93217.91;;;6.66;59.78
67545;BME280;54380;47.770;11.150;2024-02-23T08:05:41;93224.47;;;6.68;60.44
67545;BME280;54380;47.770;11.150;2024-02-23T08:08:08;93202.72;;;6.68;60.08
67545;BME280;54380;47.770;11.150;2024-02-23T08:10:35;93203.50;;;6.68;59.40
67545;BME280;54380;47.770;11.150;2024-02-23T08:13:01;93199.56;;;6.71;59.55
67545;BME280;54380;47.770;11.150;2024-02-23T08:15:28;93198.25;;;6.68;59.28
67545;BME280;54380;47.770;11.150;2024-02-23T08:17:55;93209.53;;;6.69;59.72
67545;BME280;54380;47.770;11.150;2024-02-23T08:20:23;93208.19;;;6.71;58.92
67545;BME280;54380;47.770;11.150;2024-02-23T08:22:50;93212.41;;;6.72;58.89
67545;BME280;54380;47.770;11.150;2024-02-23T08:25:17;93206.63;;;6.75;59.00
67545;BME280;54380;47.770;11.150;2024-02-23T08:27:44;93213.97;;;6.78;59.11
67545;BME280;54380;47.770;11.150;2024-02-23T08:30:13;93215.56;;;6.79;58.76
67545;BME280;54380;47.770;11.150;2024-02-23T08:32:40;93218.44;;;6.78;58.50
67545;BME280;54380;47.770;11.150;2024-02-23T08:35:07;93204.53;;;6.77;58.86
67545;BME280;54380;47.770;11.150;2024-02-23T08:37:37;93206.63;;;6.75;58.75
67545;BME280;54380;47.770;11.150;2024-02-23T08:40:07;93220.00;;;6.74;58.62
67545;BME280;54380;47.770;11.150;2024-02-23T08:42:34;93235.50;;;6.70;58.47
67545;BME280;54380;47.770;11.150;2024-02-23T08:45:00;93243.09;;;6.72;58.64
67545;BME280;54380;47.770;11.150;2024-02-23T08:47:27;93241.78;;;6.74;58.77
67545;BME280;54380;47.770;11.150;2024-02-23T08:49:58;93242.56;;;6.70;58.93
67545;BME280;54380;47.770;11.150;2024-02-23T08:52:26;93244.91;;;6.71;58.72
67545;BME280;54380;47.770;11.150;2024-02-23T08:54:54;93246.22;;;6.74;58.98
67545;BME280;54380;47.770;11.150;2024-02-23T08:57:20;93258.56;;;6.73;58.88
67545;BME280;54380;47.770;11.150;2024-02-23T08:59:49;93265.09;;;6.71;59.21
67545;BME280;54380;47.770;11.150;2024-02-23T09:02:15;93270.09;;;6.67;59.09
67545;BME280;54380;47.770;11.150;2024-02-23T09:04:42;93274.28;;;6.63;58.95
67545;BME280;54380;47.770;11.150;2024-02-23T09:07:11;93274.56;;;6.62;58.83
67545;BME280;54380;47.770;11.150;2024-02-23T09:09:38;93276.66;;;6.59;58.40
67545;BME280;54380;47.770;11.150;2024-02-23T09:12:07;93271.97;;;6.56;58.43
67545;BME280;54380;47.770;11.150;2024-02-23T09:14:37;93273.00;;;6.55;58.65
67545;BME280;54380;47.770;11.150;2024-02-23T09:17:05;93259.63;;;6.62;58.51
67545;BME280;54380;47.770;11.150;2024-02-23T09:19:32;93264.34;;;6.65;57.64
67545;BME280;54380;47.770;11.150;2024-02-23T09:21:59;93256.47;;;6.60;57.56
67545;BME280;54380;47.770;11.150;2024-02-23T09:24:27;93253.31;;;6.58;57.87
67545;BME280;54380;47.770;11.150;2024-02-23T09:48:17;93291.09;;;6.62;57.35
67545;BME280;54380;47.770;11.150;2024-02-23T09:50:47;93301.03;;;6.65;57.19
67545;BME280;54380;47.770;11.150;2024-02-23T09:53:14;93299.47;;;6.64;56.57
67545;BME280;54380;47.770;11.150;2024-02-23T09:55:42;93300.50;;;6.63;56.74
67545;BME280;54380;47.770;11.150;2024-02-23T09:58:12;93283.75;;;6.64;55.93
67545;BME280;54380;47.770;11.150;2024-02-23T10:00:43;93273.78;;;6.66;54.67
67545;BME280;54380;47.770;11.150;2024-02-23T10:03:10;93271.44;;;6.54;54.17
67545;BME280;54380;47.770;11.150;2024-02-23T10:58:40;93285.75;;;5.70;59.18
67545;BME280;54380;47.770;11.150;2024-02-23T11:01:08;93283.91;;;5.60;60.13
67545;BME280;54380;47.770;11.150;2024-02-23T11:03:37;93291.75;;;5.60;60.56
67545;BME280;54380;47.770;11.150;2024-02-23T11:06:07;93292.28;;;5.62;60.54
67545;BME280;54380;47.770;11.150;2024-02-23T11:08:35;93285.69;;;5.49;60.45
67545;BME280;54380;47.770;11.150;2024-02-23T11:11:09;93285.16;;;5.42;60.63
67545;BME280;54380;47.770;11.150;2024-02-23T11:13:37;93287.53;;;5.44;60.56
67545;BME280;54380;47.770;11.150;2024-02-23T11:16:07;93298.47;;;5.36;60.80
67545;BME280;54380;47.770;11.150;2024-02-23T11:18:39;93290.63;;;5.36;61.58
67545;BME280;54380;47.770;11.150;2024-02-23T11:21:10;93296.66;;;5.41;60.38
67545;BME280;54380;47.770;11.150;2024-02-23T11:23:40;93299.03;;;5.38;61.13
67545;BME280;54380;47.770;11.150;2024-02-23T11:26:10;93291.19;;;5.43;61.18
67545;BME280;54380;47.770;11.150;2024-02-23T11:28:47;93286.47;;;5.45;61.01
67545;BME280;54380;47.770;11.150;2024-02-23T11:31:19;93287.78;;;5.47;61.33
67545;BME280;54380;47.770;11.150;2024-02-23T11:33:50;93293.03;;;5.53;61.29
67545;BME280;54380;47.770;11.150;2024-02-23T11:36:24;93301.94;;;5.52;60.77
67545;BME280;54380;47.770;11.150;2024-02-23T11:38:54;93295.63;;;5.42;61.43
67545;BME280;54380;47.770;11.150;2024-02-23T11:41:23;93294.31;;;5.45;62.17
67545;BME280;54380;47.770;11.150;2024-02-23T11:43:52;93289.38;;;5.48;61.53
67545;BME280;54380;47.770;11.150;2024-02-23T11:46:22;93292.28;;;5.57;61.52
67545;BME280;54380;47.770;11.150;2024-02-23T11:48:49;93292.28;;;5.62;61.37
67545;BME280;54380;47.770;11.150;2024-02-23T11:51:27;93284.19;;;5.64;61.05
67545;BME280;54380;47.770;11.150;2024-02-23T11:53:57;93288.63;;;5.68;60.35
67545;BME280;54380;47.770;11.150;2024-02-23T11:56:25;93289.94;;;5.66;60.96
67545;BME280;54380;47.770;11.150;2024-02-23T11:58:53;93289.66;;;5.62;60.73
67545;BME280;54380;47.770;11.150;2024-02-23T12:01:22;93298.31;;;5.63;61.11
67545;BME280;54380;47.770;11.150;2024-02-23T12:03:49;93298.59;;;5.66;61.37
67545;BME280;54380;47.770;11.150;2024-02-23T12:06:17;93291.53;;;5.67;60.82
67545;BME280;54380;47.770;11.150;2024-02-23T12:08:44;93281.59;;;5.74;60.78
67545;BME280;54380;47.770;11.150;2024-02-23T12:11:13;93261.69;;;5.83;60.60
67545;BME280;54380;47.770;11.150;2024-02-23T12:13:41;93270.63;;;5.92;60.59
67545;BME280;54380;47.770;11.150;2024-02-23T12:16:09;93258.59;;;5.97;60.35
67545;BME280;54380;47.770;11.150;2024-02-23T12:18:37;93251.53;;;5.97;59.96
67545;BME280;54380;47.770;11.150;2024-02-23T12:21:06;93260.69;;;6.00;59.72
67545;BME280;54380;47.770;11.150;2024-02-23T12:23:42;93266.47;;;6.02;59.95
67545;BME280;54380;47.770;11.150;2024-02-23T12:26:19;93270.63;;;6.03;58.09
67545;BME280;54380;47.770;11.150;2024-02-23T12:29:19;93262.78;;;6.03;57.07
67545;BME280;54380;47.770;11.150;2024-02-23T12:32:08;93274.06;;;6.03;56.53
67545;BME280;54380;47.770;11.150;2024-02-23T12:39:17;93259.38;;;6.07;56.71
67545;BME280;54380;47.770;11.150;2024-02-23T12:42:48;93240.03;;;6.13;56.58
67545;BME280;54380;47.770;11.150;2024-02-23T12:46:06;93236.59;;;6.23;56.40
67545;BME280;54380;47.770;11.150;2024-02-23T12:49:32;93228.72;;;6.33;56.02
67545;BME280;54380;47.770;11.150;2024-02-23T12:52:56;93236.34;;;6.40;55.91
67545;BME280;54380;47.770;11.150;2024-02-23T13:16:08;93236.09;;;6.11;55.54
67545;BME280;54380;47.770;11.150;2024-02-23T13:18:35;93242.91;;;6.12;55.54
67545;BME280;54380;47.770;11.150;2024-02-23T13:21:03;93236.34;;;6.14;55.50
67545;BME280;54380;47.770;11.150;2024-02-23T13:23:30;93233.97;;;6.13;55.56
67545;BME280;54380;47.770;11.150;2024-02-23T13:25:57;93217.22;;;6.14;55.57
67545;BME280;54380;47.770;11.150;2024-02-23T13:28:25;93209.09;;;6.15;55.41
67545;BME280;54380;47.770;11.150;2024-02-23T13:30:53;93209.38;;;6.14;55.76
67545;BME280;54380;47.770;11.150;2024-02-23T13:33:22;93202.53;;;6.18;55.99
67545;BME280;54380;47.770;11.150;2024-02-23T13:36:20;93227.19;;;6.22;56.40
67545;BME280;54380;47.770;11.150;2024-02-23T13:39:22;93207.25;;;6.21;56.29
67545;BME280;54380;47.770;11.150;2024-02-23T13:43:16;93197.06;;;6.20;56.73
67545;BME280;54380;47.770;11.150;2024-02-23T13:46:56;93191.03;;;6.19;56.22
67545;BME280;54380;47.770;11.150;2024-02-23T14:49:13;93181.06;;;5.85;53.76
67545;BME280;54380;47.770;11.150;2024-02-23T14:51:40;93165.88;;;5.82;53.39
67545;BME280;54380;47.770;11.150;2024-02-23T14:54:10;93159.06;;;5.76;53.97
67545;BME280;54380;47.770;11.150;2024-02-23T14:56:37;93155.94;;;5.74;53.43
67545;BME280;54380;47.770;11.150;2024-02-23T14:59:05;93158.28;;;5.70;53.98
67545;BME280;54380;47.770;11.150;2024-02-23T15:01:36;93168.22;;;5.68;54.40
67545;BME280;54380;47.770;11.150;2024-02-23T15:04:04;93177.91;;;5.68;54.16
67545;BME280;54380;47.770;11.150;2024-02-23T15:06:32;93179.22;;;5.65;53.95
67545;BME280;54380;47.770;11.150;2024-02-23T15:09:00;93192.56;;;5.64;53.93
67545;BME280;54380;47.770;11.150;2024-02-23T15:11:27;93188.66;;;5.66;54.12
67545;BME280;54380;47.770;11.150;2024-02-23T15:13:55;93194.38;;;5.63;54.25
67545;BME280;54380;47.770;11.150;2024-02-23T15:16:24;93181.81;;;5.60;54.76
67545;BME280;54380;47.770;11.150;2024-02-23T15:18:53;93167.94;;;5.60;54.77
67545;BME280;54380;47.770;11.150;2024-02-23T15:21:20;93138.63;;;5.58;54.86
67545;BME280;54380;47.770;11.150;2024-02-23T15:23:49;93146.75;;;5.61;55.33
67545;BME280;54380;47.770;11.150;2024-02-23T15:26:16;93180.78;;;5.56;55.01
67545;BME280;54380;47.770;11.150;2024-02-23T15:28:43;93184.44;;;5.60;55.03
67545;BME280;54380;47.770;11.150;2024-02-23T15:31:11;93175.00;;;5.54;55.01
67545;BME280;54380;47.770;11.150;2024-02-23T15:33:39;93173.94;;;5.45;55.38
67545;BME280;54380;47.770;11.150;2024-02-23T15:36:13;93205.09;;;5.41;56.13
67545;BME280;54380;47.770;11.150;2024-02-23T15:42:33;93208.47;;;5.42;57.06
67545;BME280;54380;47.770;11.150;2024-02-23T15:45:16;93187.31;;;5.48;56.10
67545;BME280;54380;47.770;11.150;2024-02-23T15:48:10;93168.72;;;5.45;56.15
67545;BME280;54380;47.770;11.150;2024-02-23T15:50:56;93163.22;;;5.52;55.73
67545;BME280;54380;47.770;11.150;2024-02-23T15:53:43;93176.56;;;5.45;55.37
67545;BME280;54380;47.770;11.150;2024-02-23T15:56:31;93174.47;;;5.42;55.17